createdAt,value
2018-06-20T00:01:18.149Z,91.49
2018-06-20T00:03:48.411Z,92.23
2018-06-20T00:06:26.582Z,92.16
2018-06-20T00:08:55.855Z,90.61
2018-06-20T00:11:25.567Z,91.13
2018-06-20T00:13:55.684Z,89.47
2018-06-20T00:16:25.151Z,89.57
2018-06-20T00:18:54.066Z,92.17
2018-06-20T00:21:23.334Z,93.76
2018-06-20T00:23:52.387Z,93.97
2018-06-20T00:26:21.381Z,93.54
2018-06-20T00:28:50.679Z,93.55
2018-06-20T00:31:19.994Z,95.12
2018-06-20T00:33:49.092Z,95.34
2018-06-20T00:36:18.079Z,96.35
2018-06-20T00:38:47.252Z,95.69
2018-06-20T00:41:16.479Z,95.96
2018-06-20T00:43:45.661Z,95.28
2018-06-20T00:46:14.886Z,96.32
2018-06-20T00:48:44.159Z,96.66
2018-06-20T00:51:13.399Z,96.02
2018-06-20T00:53:42.871Z,93.79
2018-06-20T00:56:19.582Z,94.72
2018-06-20T00:58:49.074Z,93.50
2018-06-20T01:01:18.388Z,94.80
2018-06-20T01:03:47.755Z,95.24
2018-06-20T01:06:17.131Z,95.88
2018-06-20T01:08:50.334Z,95.26
2018-06-20T01:11:19.550Z,97.15
2018-06-20T01:13:48.902Z,97.53
2018-06-20T01:16:18.055Z,97.57
2018-06-20T01:18:47.435Z,97.55
2018-06-20T01:21:16.791Z,98.40
2018-06-20T01:23:46.414Z,97.88
2018-06-20T01:26:15.779Z,98.10
2018-06-20T01:28:45.024Z,97.70
2018-06-20T01:31:14.259Z,98.27
2018-06-20T01:33:43.322Z,98.99
2018-06-20T01:36:12.783Z,99.65
2018-06-20T01:38:41.945Z,98.51
2018-06-20T01:41:11.148Z,99.42
2018-06-20T01:43:40.349Z,99.28
2018-06-20T01:46:09.454Z,99.08
2018-06-20T01:48:38.609Z,99.15
2018-06-20T01:51:07.843Z,99.06
2018-06-20T01:53:37.031Z,99.53
2018-06-20T01:56:06.343Z,99.83
2018-06-20T01:58:35.388Z,100.00
2018-06-20T02:01:04.903Z,100.00
2018-06-20T02:03:34.253Z,97.59
2018-06-20T02:06:03.562Z,98.69
2018-06-20T02:08:32.695Z,98.22
2018-06-20T02:11:02.275Z,98.51
2018-06-20T02:13:31.398Z,98.35
2018-06-20T02:16:00.654Z,98.01
2018-06-20T02:18:29.694Z,98.97
2018-06-20T02:20:58.722Z,99.01
2018-06-20T02:23:27.903Z,98.71
2018-06-20T02:25:57.426Z,97.83
2018-06-20T02:28:26.593Z,98.05
2018-06-20T02:30:55.871Z,98.75
2018-06-20T02:33:24.977Z,98.29
2018-06-20T02:35:54.403Z,97.90
2018-06-20T02:38:23.796Z,98.46
2018-06-20T02:40:53.020Z,98.30
2018-06-20T02:43:22.213Z,97.35
2018-06-20T02:45:51.475Z,97.76
2018-06-20T02:48:20.522Z,98.77
2018-06-20T02:50:49.521Z,98.86
2018-06-20T02:53:18.696Z,98.41
2018-06-20T02:55:47.907Z,95.48
2018-06-20T02:58:17.116Z,96.67
2018-06-20T03:00:46.198Z,97.08
2018-06-20T03:03:15.575Z,98.35
2018-06-20T03:05:44.697Z,98.02
2018-06-20T03:08:13.874Z,97.19
2018-06-20T03:10:43.106Z,98.50
2018-06-20T03:13:12.604Z,98.35
2018-06-20T03:15:42.109Z,97.87
2018-06-20T03:18:11.318Z,98.19
2018-06-20T03:20:40.504Z,98.05
2018-06-20T03:23:09.712Z,96.39
2018-06-20T03:25:39.191Z,96.85
2018-06-20T03:28:08.481Z,97.12
2018-06-20T03:30:38.016Z,97.11
2018-06-20T03:33:07.600Z,96.78
2018-06-20T03:35:36.810Z,96.62
2018-06-20T03:38:06.102Z,96.04
2018-06-20T03:40:35.249Z,96.23
2018-06-20T03:43:04.670Z,96.34
2018-06-20T03:45:34.126Z,97.16
2018-06-20T03:48:03.210Z,96.71
2018-06-20T03:50:32.415Z,96.96
2018-06-20T03:53:01.680Z,96.06
2018-06-20T03:55:30.907Z,95.69
2018-06-20T03:58:00.127Z,96.02
2018-06-20T04:03:25.004Z,95.73
2018-06-20T04:05:54.218Z,94.43
2018-06-20T04:08:23.437Z,93.99
2018-06-20T04:10:52.418Z,93.67
2018-06-20T04:13:21.724Z,93.82
2018-06-20T04:15:51.025Z,93.80
2018-06-20T04:18:20.223Z,93.58
2018-06-20T04:20:49.427Z,93.71
2018-06-20T04:23:18.704Z,93.44
2018-06-20T04:25:47.907Z,93.12
2018-06-20T04:28:17.365Z,93.23
2018-06-20T04:30:46.708Z,91.96
2018-06-20T04:33:15.875Z,88.51
2018-06-20T04:35:45.384Z,83.38
2018-06-20T04:38:14.701Z,81.69
2018-06-20T04:40:43.964Z,83.37
2018-06-20T04:43:13.087Z,86.31
2018-06-20T04:45:42.194Z,86.47
2018-06-20T04:48:12.346Z,84.99
2018-06-20T04:50:41.566Z,82.67
2018-06-20T04:53:10.671Z,84.30
2018-06-20T04:55:40.064Z,84.75
2018-06-20T04:58:09.174Z,81.90
2018-06-20T05:00:38.423Z,80.64
2018-06-20T05:03:07.588Z,80.33
2018-06-20T05:09:13.764Z,81.94
2018-06-20T05:11:42.885Z,82.48
2018-06-20T05:14:12.174Z,83.56
2018-06-20T05:16:41.495Z,81.25
2018-06-20T05:19:10.553Z,80.77
2018-06-20T05:21:39.913Z,81.36
2018-06-20T05:24:08.969Z,80.87
2018-06-20T05:26:38.100Z,81.75
2018-06-20T05:29:07.450Z,80.81
2018-06-20T05:31:36.798Z,79.12
2018-06-20T05:34:06.079Z,77.91
2018-06-20T05:36:35.284Z,79.20
2018-06-20T05:39:06.826Z,78.87
2018-06-20T05:41:36.059Z,78.26
2018-06-20T05:44:05.339Z,76.33
2018-06-20T05:46:34.533Z,76.27
2018-06-20T05:49:04.016Z,76.27
2018-06-20T05:51:33.459Z,77.41
2018-06-20T05:54:02.619Z,76.54
2018-06-20T05:56:31.825Z,77.50
2018-06-20T05:59:00.915Z,77.39
2018-06-20T06:01:30.136Z,78.23
2018-06-20T06:03:59.294Z,78.84
2018-06-20T06:06:28.519Z,78.87
2018-06-20T06:08:57.850Z,78.82
2018-06-20T06:11:27.225Z,78.42
2018-06-20T06:13:56.507Z,78.33
2018-06-20T06:16:25.731Z,79.16
2018-06-20T06:18:55.111Z,77.52
2018-06-20T06:21:24.328Z,77.56
2018-06-20T06:23:53.524Z,77.04
2018-06-20T06:26:22.386Z,76.50
2018-06-20T06:28:51.731Z,75.14
2018-06-20T06:31:20.503Z,74.51
2018-06-20T06:33:49.307Z,73.59
2018-06-20T06:36:18.707Z,72.94
2018-06-20T06:38:47.874Z,72.08
2018-06-20T06:41:17.010Z,71.41
2018-06-20T06:43:46.146Z,70.84
2018-06-20T06:46:15.400Z,70.46
2018-06-20T06:48:44.478Z,70.66
2018-06-20T06:51:13.287Z,70.83
2018-06-20T06:53:42.827Z,69.81
2018-06-20T06:56:12.386Z,69.98
2018-06-20T06:58:41.665Z,69.08
2018-06-20T07:01:10.806Z,68.29
2018-06-20T07:03:42.284Z,66.39
2018-06-20T07:06:11.564Z,65.82
2018-06-20T07:08:40.893Z,65.86
2018-06-20T07:11:10.198Z,65.04
2018-06-20T07:13:39.327Z,64.84
2018-06-20T07:16:08.566Z,64.66
2018-06-20T07:18:37.826Z,64.23
2018-06-20T07:21:06.715Z,64.36
2018-06-20T07:23:35.903Z,64.40
2018-06-20T07:26:05.011Z,64.78
2018-06-20T07:28:33.791Z,65.08
2018-06-20T07:31:04.194Z,64.00
2018-06-20T07:33:33.773Z,64.07
2018-06-20T07:36:03.567Z,65.08
2018-06-20T07:38:32.327Z,65.81
2018-06-20T07:41:01.179Z,65.31
2018-06-20T07:43:30.370Z,65.27
2018-06-20T07:45:59.335Z,64.33
2018-06-20T07:48:28.542Z,65.38
2018-06-20T07:50:57.714Z,65.45
2018-06-20T07:53:26.906Z,64.55
2018-06-20T07:55:55.939Z,64.25
2018-06-20T07:59:32.218Z,63.73
2018-06-20T08:04:21.333Z,64.86
2018-06-20T08:06:55.659Z,63.46
2018-06-20T08:09:29.904Z,64.57
2018-06-20T08:12:04.651Z,63.50
2018-06-20T08:16:45.848Z,64.34
2018-06-20T08:19:20.374Z,64.85
2018-06-20T08:21:49.224Z,64.16
2018-06-20T08:24:18.821Z,62.85
2018-06-20T08:26:48.142Z,62.41
2018-06-20T08:29:17.777Z,63.09
2018-06-20T08:31:47.032Z,63.20
2018-06-20T08:34:16.511Z,62.06
2018-06-20T08:36:45.782Z,62.31
2018-06-20T08:39:14.886Z,63.51
2018-06-20T08:41:44.297Z,61.98
2018-06-20T08:44:13.468Z,61.42
2018-06-20T08:46:42.872Z,61.07
2018-06-20T08:49:12.160Z,60.65
2018-06-20T08:51:41.398Z,60.96
2018-06-20T08:54:10.685Z,60.47
2018-06-20T08:56:43.326Z,60.37
2018-06-20T08:59:13.631Z,59.61
2018-06-20T09:01:42.836Z,59.46
2018-06-20T09:04:17.169Z,59.20
2018-06-20T09:06:51.600Z,58.42
2018-06-20T09:09:25.971Z,59.49
2018-06-20T09:12:00.385Z,57.42
2018-06-20T09:14:32.589Z,57.41
2018-06-20T09:17:07.063Z,58.15
2018-06-20T09:19:41.920Z,59.02
2018-06-20T09:22:11.310Z,59.50
2018-06-20T09:24:40.540Z,59.37
2018-06-20T09:27:09.932Z,59.41
2018-06-20T09:29:39.191Z,58.43
2018-06-20T09:32:08.528Z,58.94
2018-06-20T09:34:37.844Z,58.56
2018-06-20T09:37:07.254Z,58.73
2018-06-20T09:39:36.456Z,58.18
2018-06-20T09:42:05.951Z,58.41
2018-06-20T09:44:35.118Z,57.94
2018-06-20T09:47:04.451Z,57.62
2018-06-20T09:49:33.576Z,56.64
2018-06-20T09:52:02.856Z,57.02
2018-06-20T09:54:32.121Z,56.69
2018-06-20T09:57:01.551Z,55.73
2018-06-20T09:59:36.000Z,55.68
2018-06-20T10:02:10.380Z,56.79
2018-06-20T10:04:44.630Z,55.92
2018-06-20T10:09:22.106Z,56.94
2018-06-20T10:11:56.349Z,56.81
2018-06-20T10:14:25.463Z,57.75
2018-06-20T10:16:55.080Z,56.96
2018-06-20T10:19:24.384Z,56.55
2018-06-20T10:21:53.936Z,55.78
2018-06-20T10:24:23.439Z,54.32
2018-06-20T10:26:52.738Z,57.46
2018-06-20T10:29:22.109Z,55.35
2018-06-20T10:31:51.332Z,56.20
2018-06-20T10:34:20.521Z,54.58
2018-06-20T10:36:49.625Z,55.56
2018-06-20T10:39:18.817Z,54.59
2018-06-20T10:41:48.124Z,54.70
2018-06-20T10:44:17.522Z,53.72
2018-06-20T10:46:51.776Z,53.39
2018-06-20T10:49:24.071Z,52.92
2018-06-20T10:51:53.239Z,52.83
2018-06-20T10:54:22.713Z,52.34
2018-06-20T10:56:57.031Z,52.55
2018-06-20T10:59:31.487Z,53.29
2018-06-20T11:02:05.819Z,53.86
2018-06-20T11:04:40.243Z,55.06
2018-06-20T11:07:14.612Z,53.54
2018-06-20T11:09:49.102Z,53.31
2018-06-20T11:12:23.377Z,52.07
2018-06-20T11:14:55.650Z,53.42
2018-06-20T11:17:25.132Z,52.94
2018-06-20T11:19:54.399Z,54.39
2018-06-20T11:22:23.834Z,53.65
2018-06-20T11:24:53.106Z,54.52
2018-06-20T11:27:22.834Z,55.25
2018-06-20T11:29:52.020Z,55.34
2018-06-20T11:32:21.577Z,53.98
2018-06-20T11:34:50.915Z,54.41
2018-06-20T11:37:20.081Z,54.66
2018-06-20T11:39:49.229Z,54.63
2018-06-20T11:42:18.211Z,55.73
2018-06-20T11:44:47.588Z,54.94
2018-06-20T11:47:22.078Z,55.62
2018-06-20T11:49:51.523Z,56.38
2018-06-20T11:52:26.050Z,55.11
2018-06-20T11:55:04.142Z,53.56
2018-06-20T11:57:34.348Z,55.38
2018-06-20T12:00:08.596Z,54.54
2018-06-20T12:02:42.943Z,54.37
2018-06-20T12:05:17.156Z,55.76
2018-06-20T12:07:51.395Z,55.49
2018-06-20T12:10:25.683Z,56.20
2018-06-20T12:13:00.061Z,57.60
2018-06-20T12:15:34.577Z,56.86
2018-06-20T12:18:08.907Z,56.67
2018-06-20T12:20:43.289Z,55.73
2018-06-20T12:23:17.408Z,55.92
2018-06-20T12:25:51.919Z,55.64
2018-06-20T12:28:27.187Z,54.45
2018-06-20T12:31:01.452Z,53.09
2018-06-20T12:33:35.946Z,54.11
2018-06-20T12:36:10.492Z,51.14
2018-06-20T12:38:44.992Z,49.98
2018-06-20T12:41:19.351Z,47.31
2018-06-20T12:43:53.841Z,48.97
2018-06-20T12:46:28.230Z,46.71
2018-06-20T12:48:57.764Z,47.96
2018-06-20T12:51:27.131Z,46.80
2018-06-20T12:53:56.165Z,45.40
2018-06-20T12:56:25.614Z,44.29
2018-06-20T12:58:55.049Z,44.51
2018-06-20T13:01:24.204Z,44.31
2018-06-20T13:03:53.274Z,44.24
2018-06-20T13:06:22.510Z,46.67
2018-06-20T13:08:52.078Z,46.95
2018-06-20T13:11:21.315Z,44.82
2018-06-20T13:13:50.618Z,40.17
2018-06-20T13:16:21.066Z,40.10
2018-06-20T13:18:59.867Z,40.38
2018-06-20T13:21:29.574Z,40.02
2018-06-20T13:23:58.841Z,40.64
2018-06-20T13:26:28.011Z,41.35
2018-06-20T13:28:57.351Z,41.97
2018-06-20T13:31:31.611Z,39.61
2018-06-20T13:34:05.757Z,41.40
2018-06-20T13:36:40.185Z,41.41
2018-06-20T13:39:14.422Z,41.08
2018-06-20T13:41:48.725Z,43.61
2018-06-20T13:44:23.530Z,43.59
2018-06-20T13:46:57.826Z,42.75
2018-06-20T13:49:27.351Z,43.47
2018-06-20T13:51:57.269Z,39.48
2018-06-20T13:54:26.635Z,41.73
2018-06-20T13:56:55.932Z,42.27
2018-06-20T13:59:25.259Z,44.42
2018-06-20T14:01:54.509Z,43.28
2018-06-20T14:04:23.590Z,43.35
2018-06-20T14:06:52.983Z,39.28
2018-06-20T14:09:22.115Z,40.82
2018-06-20T14:11:51.522Z,41.93
2018-06-20T14:14:20.793Z,42.52
2018-06-20T14:16:50.007Z,41.28
2018-06-20T14:19:23.369Z,39.86
2018-06-20T14:21:52.638Z,35.32
2018-06-20T14:24:21.921Z,33.94
2018-06-20T14:26:51.043Z,32.98
2018-06-20T14:29:20.167Z,36.60
2018-06-20T14:31:54.625Z,39.47
2018-06-20T14:34:28.863Z,40.72
2018-06-20T14:37:03.082Z,39.12
2018-06-20T14:39:37.471Z,41.66
2018-06-20T14:42:11.993Z,39.13
2018-06-20T14:44:41.210Z,39.26
2018-06-20T14:47:11.087Z,39.95
2018-06-20T14:49:40.304Z,42.05
2018-06-20T14:52:09.552Z,42.95
2018-06-20T14:54:38.792Z,44.31
2018-06-20T14:57:08.064Z,42.51
2018-06-20T14:59:37.366Z,41.18
2018-06-20T15:02:07.356Z,42.38
2018-06-20T15:04:36.682Z,42.66
2018-06-20T15:07:05.940Z,42.91
2018-06-20T15:09:35.198Z,41.99
2018-06-20T15:12:04.515Z,44.32
2018-06-20T15:14:33.793Z,44.60
2018-06-20T15:17:08.168Z,44.04
2018-06-20T15:19:37.428Z,44.02
2018-06-20T15:22:06.761Z,42.19
2018-06-20T15:24:36.000Z,42.91
2018-06-20T15:27:10.325Z,42.27
2018-06-20T15:29:44.730Z,40.39
2018-06-20T15:32:19.195Z,38.31
2018-06-20T15:34:54.068Z,37.68
2018-06-20T15:37:28.520Z,36.62
2018-06-20T15:39:57.851Z,36.10
2018-06-20T15:42:27.166Z,36.07
2018-06-20T15:44:57.189Z,36.78
2018-06-20T15:47:27.403Z,36.61
2018-06-20T15:49:56.507Z,35.04
2018-06-20T15:52:25.727Z,35.78
2018-06-20T15:54:55.086Z,33.52
2018-06-20T15:57:24.188Z,35.86
2018-06-20T15:59:53.663Z,37.88
2018-06-20T16:02:22.908Z,38.56
2018-06-20T16:04:52.166Z,36.63
2018-06-20T16:07:21.571Z,38.31
2018-06-20T16:09:56.751Z,40.35
2018-06-20T16:12:27.307Z,34.40
2018-06-20T16:14:57.266Z,37.46
2018-06-20T16:17:26.489Z,38.62
2018-06-20T16:20:00.838Z,38.77
2018-06-20T16:22:35.145Z,40.93
2018-06-20T16:25:09.524Z,41.05
2018-06-20T16:27:43.966Z,39.97
2018-06-20T16:30:18.190Z,39.75
2018-06-20T16:32:47.628Z,38.85
2018-06-20T16:35:16.688Z,39.77
2018-06-20T16:37:45.992Z,40.66
2018-06-20T16:40:15.056Z,40.31
2018-06-20T16:42:44.174Z,41.34
2018-06-20T16:45:13.970Z,41.36
2018-06-20T16:47:43.455Z,41.44
2018-06-20T16:50:12.684Z,41.07
2018-06-20T16:52:41.898Z,41.04
2018-06-20T16:55:11.651Z,41.78
2018-06-20T16:57:41.088Z,41.76
2018-06-20T17:00:10.281Z,42.24
2018-06-20T17:02:41.075Z,42.53
2018-06-20T17:05:16.775Z,44.11
2018-06-20T17:07:45.939Z,44.69
2018-06-20T17:10:15.491Z,45.25
2018-06-20T17:12:49.719Z,44.93
2018-06-20T17:15:24.015Z,45.65
2018-06-20T17:17:58.741Z,46.85
2018-06-20T17:20:33.674Z,47.38
2018-06-20T17:23:08.102Z,45.79
2018-06-20T17:25:37.629Z,46.02
2018-06-20T17:28:06.988Z,46.87
2018-06-20T17:30:36.263Z,46.61
2018-06-20T17:33:05.603Z,46.20
2018-06-20T17:35:35.373Z,47.62
2018-06-20T17:38:04.455Z,48.65
2018-06-20T17:40:33.742Z,47.88
2018-06-20T17:43:03.062Z,46.42
2018-06-20T17:45:32.331Z,48.07
2018-06-20T17:48:01.671Z,47.30
2018-06-20T17:50:30.991Z,48.18
2018-06-20T17:53:00.909Z,48.43
2018-06-20T17:55:30.352Z,48.75
2018-06-20T17:57:59.604Z,49.61
2018-06-20T18:00:29.038Z,49.74
2018-06-20T18:02:58.358Z,48.71
2018-06-20T18:05:37.763Z,50.03
2018-06-20T18:08:12.137Z,50.87
2018-06-20T18:10:46.546Z,51.30
2018-06-20T18:13:15.806Z,52.10
2018-06-20T18:15:50.081Z,52.27
2018-06-20T18:18:19.447Z,51.66
2018-06-20T18:20:48.823Z,50.72
2018-06-20T18:23:18.089Z,51.60
2018-06-20T18:25:48.490Z,53.24
2018-06-20T18:28:17.750Z,52.70
2018-06-20T18:30:47.081Z,52.93
2018-06-20T18:33:16.485Z,53.78
2018-06-20T18:35:45.664Z,54.38
2018-06-20T18:38:14.920Z,56.11
2018-06-20T18:40:44.226Z,55.63
2018-06-20T18:43:13.398Z,56.43
2018-06-20T18:45:42.926Z,55.94
2018-06-20T18:48:17.316Z,56.50
2018-06-20T18:50:46.648Z,58.00
2018-06-20T18:53:16.201Z,58.61
2018-06-20T18:55:45.585Z,57.94
2018-06-20T18:58:19.988Z,61.46
2018-06-20T19:00:54.450Z,59.71
2018-06-20T19:03:28.931Z,60.44
2018-06-20T19:07:02.266Z,61.33
2018-06-20T19:09:31.519Z,60.94
2018-06-20T19:12:00.852Z,62.40
2018-06-20T19:14:30.080Z,62.93
2018-06-20T19:17:00.225Z,64.01
2018-06-20T19:19:29.467Z,65.04
2018-06-20T19:21:59.319Z,64.69
2018-06-20T19:24:28.551Z,65.43
2018-06-20T19:26:57.878Z,64.65
2018-06-20T19:29:27.156Z,64.71
2018-06-20T19:31:57.665Z,65.56
2018-06-20T19:34:26.847Z,65.25
2018-06-20T19:36:56.298Z,66.60
2018-06-20T19:39:31.645Z,67.58
2018-06-20T19:42:01.253Z,67.51
2018-06-20T19:44:34.467Z,67.55
2018-06-20T19:47:05.618Z,69.03
2018-06-20T19:49:34.941Z,69.87
2018-06-20T19:52:04.394Z,69.76
2018-06-20T19:54:33.914Z,70.92
2018-06-20T19:57:03.319Z,70.58
2018-06-20T19:59:32.503Z,71.47
2018-06-20T20:02:01.926Z,72.54
2018-06-20T20:04:31.205Z,73.41
2018-06-20T20:07:00.503Z,73.24
2018-06-20T20:09:29.911Z,73.12
2018-06-20T20:11:59.430Z,74.34
2018-06-20T20:14:28.770Z,74.69
2018-06-20T20:16:58.143Z,75.41
2018-06-20T20:19:27.266Z,76.14
2018-06-20T20:21:56.765Z,76.11
2018-06-20T20:24:26.626Z,75.84
2018-06-20T20:26:55.918Z,76.39
2018-06-20T20:29:25.082Z,76.07
2018-06-20T20:31:54.330Z,77.30
2018-06-20T20:34:23.799Z,78.08
2018-06-20T20:36:53.503Z,78.29
2018-06-20T20:39:22.594Z,77.51
2018-06-20T20:41:51.789Z,77.99
2018-06-20T20:44:20.885Z,77.93
2018-06-20T20:46:50.267Z,77.89
2018-06-20T20:49:19.853Z,78.66
2018-06-20T20:51:49.682Z,79.78
2018-06-20T20:54:18.935Z,79.54
2018-06-20T20:56:48.151Z,79.60
2018-06-20T20:59:17.403Z,79.56
2018-06-20T21:01:46.629Z,79.53
2018-06-20T21:04:15.859Z,79.72
2018-06-20T21:06:45.094Z,80.31
2018-06-20T21:09:15.171Z,79.88
2018-06-20T21:11:44.435Z,81.44
2018-06-20T21:14:15.898Z,81.28
2018-06-20T21:16:45.166Z,81.20
2018-06-20T21:19:14.354Z,81.27
2018-06-20T21:21:43.590Z,81.74
2018-06-20T21:24:12.641Z,81.71
2018-06-20T21:26:41.964Z,82.31
2018-06-20T21:29:11.258Z,82.30
2018-06-20T21:31:40.818Z,82.49
2018-06-20T21:34:09.747Z,83.89
2018-06-20T21:36:38.950Z,83.35
2018-06-20T21:39:09.982Z,84.30
2018-06-20T21:41:39.475Z,85.00
2018-06-20T21:44:08.856Z,84.72
2018-06-20T21:46:38.032Z,84.40
2018-06-20T21:49:07.163Z,84.36
2018-06-20T21:51:36.516Z,84.33
2018-06-20T21:54:05.710Z,85.52
2018-06-20T21:56:35.098Z,84.77
2018-06-20T21:59:04.152Z,84.85
2018-06-20T22:01:33.502Z,85.91
2018-06-20T22:04:02.667Z,85.78
2018-06-20T22:06:31.899Z,86.73
2018-06-20T22:09:01.032Z,86.56
2018-06-20T22:11:34.415Z,86.54
2018-06-20T22:14:03.689Z,87.16
2018-06-20T22:16:33.323Z,87.66
2018-06-20T22:19:03.262Z,87.82
2018-06-20T22:21:32.498Z,88.09
2018-06-20T22:24:03.329Z,87.55
2018-06-20T22:26:32.654Z,88.18
2018-06-20T22:29:01.735Z,87.85
2018-06-20T22:31:31.641Z,87.53
2018-06-20T22:34:01.154Z,88.27
2018-06-20T22:36:30.377Z,88.81
2018-06-20T22:39:01.253Z,88.65
2018-06-20T22:41:30.914Z,89.10
2018-06-20T22:44:00.389Z,89.37
2018-06-20T22:46:29.698Z,89.60
2018-06-20T22:49:01.045Z,89.61
2018-06-20T22:51:30.837Z,89.51
2018-06-20T22:53:59.865Z,89.46
2018-06-20T22:56:29.088Z,90.28
2018-06-20T22:58:59.050Z,90.70
2018-06-20T23:01:28.553Z,90.96
2018-06-20T23:03:57.930Z,91.29
2018-06-20T23:06:27.183Z,91.20
2018-06-20T23:08:56.239Z,91.94
2018-06-20T23:11:25.499Z,91.23
2018-06-20T23:13:54.572Z,91.11
2018-06-20T23:16:23.927Z,91.84
2018-06-20T23:18:55.993Z,92.50
2018-06-20T23:21:25.250Z,92.72
2018-06-20T23:23:54.427Z,92.65
2018-06-20T23:26:23.521Z,92.85
2018-06-20T23:28:52.842Z,92.63
2018-06-20T23:31:22.130Z,92.89
2018-06-20T23:33:51.299Z,92.73
2018-06-20T23:36:20.634Z,92.65
2018-06-20T23:38:50.000Z,93.14
2018-06-20T23:41:19.290Z,93.86
2018-06-20T23:43:49.559Z,93.34
2018-06-20T23:46:19.154Z,94.10
2018-06-20T23:48:48.199Z,94.15
2018-06-20T23:51:17.487Z,93.53
2018-06-20T23:53:47.031Z,94.36
2018-06-20T23:56:16.145Z,94.35
2018-06-20T23:58:45.318Z,94.81
